Brandywine Airport


Codes: KOQN/
Name: Brandywine Airport
City: West Chester
Country: United States
Elevation: 466 ft.

Photos at Brandywine Airport


   Photos courtesy of SpottingLog. You can add your own sightings and photos by signing up for a free trial today.



No photos found.

Weather at Brandywine Airport


Time (UTC)DescriptionTempratureWindCloud coverageVisibilityPressureHumidity
17-Jun-2024 06:00Few Clouds19°C7 mph, S23%10000m1022hPa74%
17-Jun-2024 09:00Scattered Clouds18°C7 mph, S42%10000m1023hPa76%
17-Jun-2024 12:00Scattered Clouds20°C9 mph, S42%10000m1023hPa70%
17-Jun-2024 15:00Clear Sky25°C11 mph, SW8%10000m1022hPa56%
17-Jun-2024 18:00Clear Sky29°C11 mph, SW8%10000m1021hPa51%
17-Jun-2024 21:00Clear Sky29°C11 mph, SW7%10000m1020hPa53%
18-Jun-2024 00:00Clear Sky24°C9 mph, SE10%10000m1021hPa73%
18-Jun-2024 03:00Clear Sky20°C7 mph, S0%10000m1022hPa79%
18-Jun-2024 06:00Light Rain18°C4 mph, S2%10000m1023hPa85%
18-Jun-2024 09:00Light Rain17°C4 mph, S6%10000m1024hPa89%
18-Jun-2024 12:00Light Rain20°C7 mph, S11%10000m1025hPa89%
18-Jun-2024 15:00Broken Clouds27°C7 mph, SW57%10000m1025hPa61%
18-Jun-2024 18:00Scattered Clouds30°C7 mph, SW31%10000m1024hPa53%
18-Jun-2024 21:00Few Clouds31°C9 mph, SW12%10000m1023hPa53%
19-Jun-2024 00:00Few Clouds25°C9 mph, S11%10000m1024hPa64%
19-Jun-2024 03:00Scattered Clouds21°C9 mph, S29%10000m1025hPa73%
19-Jun-2024 06:00Broken Clouds20°C4 mph, S55%10000m1026hPa76%
19-Jun-2024 09:00Few Clouds18°C4 mph, SW15%10000m1027hPa81%
19-Jun-2024 12:00Few Clouds22°C4 mph, SW17%10000m1028hPa75%
19-Jun-2024 15:00Scattered Clouds27°C4 mph, SW48%10000m1028hPa54%
19-Jun-2024 18:00Scattered Clouds30°C7 mph, S28%10000m1027hPa46%
19-Jun-2024 21:00Clear Sky30°C9 mph, S9%10000m1026hPa46%
20-Jun-2024 00:00Clear Sky24°C7 mph, S6%10000m1026hPa65%
20-Jun-2024 03:00Clear Sky20°C7 mph, S3%10000m1027hPa79%
20-Jun-2024 06:00Few Clouds19°C4 mph, SW14%10000m1027hPa85%
20-Jun-2024 09:00Clear Sky18°C4 mph, SW8%10000m1027hPa90%
20-Jun-2024 12:00Clear Sky22°C7 mph, SW5%10000m1028hPa78%
20-Jun-2024 15:00Clear Sky27°C7 mph, SW0%10000m1027hPa55%
20-Jun-2024 18:00Clear Sky31°C7 mph, SW0%10000m1026hPa46%
20-Jun-2024 21:00Scattered Clouds31°C7 mph, SW35%10000m1024hPa46%
21-Jun-2024 00:00Broken Clouds26°C4 mph, SW66%10000m1024hPa66%
21-Jun-2024 03:00Broken Clouds21°C4 mph, SW54%10000m1025hPa77%
21-Jun-2024 06:00Broken Clouds20°C4 mph, SW55%10000m1025hPa84%
21-Jun-2024 09:00Overcast Clouds19°C4 mph, SW99%10000m1024hPa87%
21-Jun-2024 12:00Overcast Clouds22°C4 mph, W100%10000m1025hPa69%
21-Jun-2024 15:00Overcast Clouds28°C4 mph, SW100%10000m1024hPa52%
21-Jun-2024 18:00Overcast Clouds31°C7 mph, SW100%10000m1022hPa47%
21-Jun-2024 21:00Overcast Clouds31°C7 mph, SW100%10000m1020hPa43%
22-Jun-2024 00:00Overcast Clouds27°C4 mph, SW99%10000m1020hPa63%
22-Jun-2024 03:00Overcast Clouds22°C4 mph, SW85%10000m1021hPa74%